メインページ
METAR-TAF:

METAR-TAF

空港 :

コペンハーゲン, デンマーク

コペンハーゲン空港

緯度: 55-37N, 経度: 012-39E, 海抜: 5m

現時点の気象観測

当レポートは22分前の14:18(UTC)に作成
の風 10kt
気温 21°C
湿度 56%
気圧 1005 hPa
視程10km以上
1,500メートル以下は雲なし、積乱雲なし

METAR: EKCH 261418Z 36010KT CAVOK 21/12 Q1005 NOSIG

時間: 16:40 (14:40 UTC)

予報

当レポートは3時間49分前の10:51(UTC)に作成
予報は26日の 12時(UTC)から 27日の 12時(UTC)まで有効
の風 12kt
視程10km以上
高度4000ftの雲は散在している

TAF: EKCH 261051Z 2612/2712 01012KT 9999 SCT040

4,000以上の空港の気象観測と天気予報(METAR報とTAF報)

利用可能な観測所は地図上に黄色い丸と赤い丸で示す。

丸の上にカーソルを重ねると観測所名を参照できる。

次にクリックすると気象観測と天気予報を参照できる。

マップの切り替え:黒色「×」印の緑ボタンをクリックして拡大、「-」印の緑ボタンをクリックして縮小、緑色の三角印をクリックして隣りの地図に切り替え


METAR-TAF: